createdAt,value
2023-02-22T00:01:19.215Z,92.79
2023-02-22T00:03:51.936Z,92.78
2023-02-22T00:06:25.105Z,93.01
2023-02-22T00:08:52.534Z,93.01
2023-02-22T00:11:24.077Z,92.85
2023-02-22T00:13:50.970Z,92.97
2023-02-22T00:16:22.165Z,93.02
2023-02-22T00:18:49.643Z,93.02
2023-02-22T00:21:17.859Z,93.04
2023-02-22T00:23:46.962Z,93.16
2023-02-22T00:26:24.889Z,93.13
2023-02-22T00:28:53.572Z,92.99
2023-02-22T00:31:21.732Z,93.03
2023-02-22T00:33:50.595Z,92.92
2023-02-22T00:36:18.060Z,93.25
2023-02-22T00:38:46.903Z,92.88
2023-02-22T00:41:14.871Z,92.92
2023-02-22T00:43:43.932Z,93.14
2023-02-22T00:46:10.513Z,93.11
2023-02-22T00:48:37.095Z,93.00
2023-02-22T00:51:08.542Z,92.90
2023-02-22T00:53:36.135Z,92.90
2023-02-22T00:56:06.407Z,92.76
2023-02-22T00:58:37.273Z,92.87
2023-02-22T01:01:03.886Z,92.95
2023-02-22T01:03:32.203Z,93.01
2023-02-22T01:06:01.120Z,92.92
2023-02-22T01:08:31.161Z,92.84
2023-02-22T01:11:00.662Z,92.96
2023-02-22T01:13:27.246Z,93.08
2023-02-22T01:15:56.766Z,92.96
2023-02-22T01:18:25.938Z,92.98
2023-02-22T01:20:52.409Z,93.03
2023-02-22T01:23:18.891Z,93.03
2023-02-22T01:25:45.683Z,93.23
2023-02-22T01:28:13.843Z,93.23
2023-02-22T01:30:40.775Z,93.20
2023-02-22T01:33:11.873Z,93.10
2023-02-22T01:35:40.828Z,93.17
2023-02-22T01:38:11.832Z,93.26
2023-02-22T01:40:42.580Z,93.30
2023-02-22T01:43:18.126Z,93.17
2023-02-22T01:45:55.385Z,93.33
2023-02-22T01:48:51.845Z,93.54
2023-02-22T01:51:23.959Z,93.39
2023-02-22T01:54:01.626Z,93.66
2023-02-22T01:56:34.392Z,93.35
2023-02-22T01:59:10.540Z,93.50
2023-02-22T02:01:39.547Z,93.54
2023-02-22T02:04:14.029Z,93.49
2023-02-22T02:06:42.660Z,93.69
2023-02-22T02:09:23.745Z,93.48
2023-02-22T02:11:53.998Z,93.31
2023-02-22T02:14:20.557Z,93.33
2023-02-22T02:16:53.323Z,93.36
2023-02-22T02:19:36.157Z,93.17
2023-02-22T02:22:21.094Z,93.29
2023-02-22T02:25:18.108Z,93.14
2023-02-22T02:28:10.873Z,93.08
2023-02-22T02:30:49.947Z,93.07
2023-02-22T02:33:25.521Z,93.01
2023-02-22T02:36:00.219Z,93.04
2023-02-22T02:38:41.486Z,93.12
2023-02-22T02:41:18.811Z,93.18
2023-02-22T02:43:57.501Z,93.19
2023-02-22T02:46:31.586Z,92.94
2023-02-22T02:49:05.847Z,93.07
2023-02-22T02:51:38.910Z,93.42
2023-02-22T02:54:07.402Z,93.26
2023-02-22T02:56:35.642Z,93.19
2023-02-22T02:59:02.163Z,93.07
2023-02-22T03:01:46.302Z,93.15
2023-02-22T03:04:41.543Z,93.13
2023-02-22T03:07:31.352Z,93.32
2023-02-22T03:10:20.013Z,93.29
2023-02-22T03:13:37.243Z,93.28
2023-02-22T03:16:12.250Z,93.52
2023-02-22T03:18:50.382Z,93.22
2023-02-22T03:21:27.495Z,93.15
2023-02-22T03:24:09.700Z,92.99
2023-02-22T03:26:47.476Z,93.22
2023-02-22T03:29:22.658Z,93.28
2023-02-22T03:31:55.398Z,93.24
2023-02-22T03:34:28.389Z,93.35
2023-02-22T03:37:00.883Z,93.47
2023-02-22T03:39:31.023Z,93.42
2023-02-22T03:42:09.685Z,93.53
2023-02-22T03:44:38.711Z,93.52
2023-02-22T03:47:11.402Z,93.55
2023-02-22T03:49:44.450Z,93.53
2023-02-22T03:52:13.440Z,93.56
2023-02-22T03:54:40.562Z,93.62
2023-02-22T03:57:20.912Z,93.69
2023-02-22T03:59:47.591Z,93.84
2023-02-22T04:02:19.013Z,93.68
2023-02-22T04:04:48.493Z,93.68
2023-02-22T04:07:15.467Z,93.63
2023-02-22T04:09:42.640Z,93.90
2023-02-22T04:12:09.630Z,93.81
2023-02-22T04:14:38.455Z,93.91
2023-02-22T04:17:07.424Z,93.66
2023-02-22T04:19:39.430Z,93.94
2023-02-22T04:22:08.768Z,93.99
2023-02-22T04:24:35.258Z,93.85
2023-02-22T04:27:01.749Z,94.16
2023-02-22T04:29:28.270Z,94.00
2023-02-22T04:31:58.167Z,93.96
2023-02-22T04:34:30.022Z,94.13
2023-02-22T04:36:56.463Z,94.17
2023-02-22T04:39:23.041Z,94.26
2023-02-22T04:41:54.466Z,94.33
2023-02-22T04:44:23.201Z,94.45
2023-02-22T04:46:53.026Z,94.40
2023-02-22T04:49:19.537Z,94.41
2023-02-22T04:51:51.001Z,94.47
2023-02-22T04:54:18.348Z,94.67
2023-02-22T04:56:45.454Z,94.63
2023-02-22T04:59:16.844Z,94.73
2023-02-22T05:01:43.692Z,94.56
2023-02-22T05:04:12.632Z,94.90
2023-02-22T05:06:39.475Z,94.85
2023-02-22T05:09:06.102Z,94.77
2023-02-22T05:11:32.614Z,95.14
2023-02-22T05:14:02.173Z,95.10
2023-02-22T05:16:29.592Z,95.19
2023-02-22T05:18:56.178Z,95.20
2023-02-22T05:21:22.665Z,95.27
2023-02-22T05:23:51.485Z,95.47
2023-02-22T05:26:20.609Z,95.49
2023-02-22T05:28:47.681Z,95.53
2023-02-22T05:31:19.386Z,95.54
2023-02-22T05:33:46.267Z,95.48
2023-02-22T05:36:12.785Z,95.41
2023-02-22T05:38:44.796Z,95.82
2023-02-22T05:41:12.639Z,95.85
2023-02-22T05:43:40.296Z,95.55
2023-02-22T05:46:14.629Z,95.79
2023-02-22T05:48:42.516Z,95.92
2023-02-22T05:51:10.621Z,96.00
2023-02-22T05:53:37.620Z,96.12
2023-02-22T05:56:04.828Z,96.22
2023-02-22T05:58:31.670Z,95.96
2023-02-22T06:00:58.140Z,96.26
2023-02-22T06:03:24.604Z,96.11
2023-02-22T06:05:53.399Z,96.33
2023-02-22T06:08:20.195Z,96.45
2023-02-22T06:10:49.724Z,96.36
2023-02-22T06:13:16.233Z,96.57
2023-02-22T06:15:45.563Z,96.37
2023-02-22T06:18:14.298Z,96.66
2023-02-22T06:20:41.374Z,96.60
2023-02-22T06:23:07.951Z,96.54
2023-02-22T06:25:35.369Z,96.62
2023-02-22T06:28:02.542Z,96.71
2023-02-22T06:30:31.781Z,96.58
2023-02-22T06:32:58.392Z,96.74
2023-02-22T06:35:24.845Z,96.78
2023-02-22T06:37:54.012Z,96.99
2023-02-22T06:40:20.656Z,96.95
2023-02-22T06:42:53.796Z,96.95
2023-02-22T06:45:22.584Z,96.95
2023-02-22T06:47:51.333Z,97.01
2023-02-22T06:50:30.032Z,96.84
2023-02-22T06:52:59.574Z,96.98
2023-02-22T06:55:28.868Z,97.05
2023-02-22T06:57:55.495Z,97.14
2023-02-22T07:00:26.487Z,97.20
2023-02-22T07:02:57.068Z,97.01
2023-02-22T07:05:26.535Z,97.18
2023-02-22T07:08:02.843Z,97.25
2023-02-22T07:10:31.604Z,97.22
2023-02-22T07:12:58.315Z,97.24
2023-02-22T07:15:29.556Z,97.25
2023-02-22T07:17:56.037Z,97.36
2023-02-22T07:20:26.141Z,97.29
2023-02-22T07:22:55.303Z,97.38
2023-02-22T07:25:23.400Z,97.40
2023-02-22T07:27:53.009Z,97.34
2023-02-22T07:30:32.347Z,97.42
2023-02-22T07:33:01.113Z,97.31
2023-02-22T07:35:36.726Z,97.33
2023-02-22T07:38:08.248Z,97.64
2023-02-22T07:40:35.323Z,97.44
2023-02-22T07:43:07.202Z,97.58
2023-02-22T07:45:38.382Z,97.48
2023-02-22T07:48:06.991Z,97.49
2023-02-22T07:50:35.546Z,97.58
2023-02-22T07:53:05.595Z,97.50
2023-02-22T07:55:33.569Z,97.64
2023-02-22T07:58:02.657Z,97.65
2023-02-22T08:00:33.712Z,97.50
2023-02-22T08:03:02.014Z,97.55
2023-02-22T08:05:29.790Z,97.75
2023-02-22T08:07:58.600Z,97.73
2023-02-22T08:10:28.571Z,97.80
2023-02-22T08:12:55.943Z,97.89
2023-02-22T08:15:34.810Z,97.66
2023-02-22T08:18:05.924Z,97.74
2023-02-22T08:20:32.410Z,97.58
2023-02-22T08:22:59.031Z,97.49
2023-02-22T08:25:29.498Z,97.56
2023-02-22T08:28:06.754Z,97.70
2023-02-22T08:30:40.077Z,97.79
2023-02-22T08:33:09.424Z,97.52
2023-02-22T08:35:40.940Z,97.81
2023-02-22T08:38:10.892Z,97.74
2023-02-22T08:40:40.616Z,97.52
2023-02-22T08:43:09.469Z,97.65
2023-02-22T08:45:35.984Z,97.77
2023-02-22T08:48:05.822Z,97.76
2023-02-22T08:50:36.321Z,97.49
2023-02-22T08:53:05.003Z,97.45
2023-02-22T08:55:36.753Z,97.39
2023-02-22T08:58:07.763Z,97.70
2023-02-22T09:00:34.479Z,97.33
2023-02-22T09:03:03.118Z,97.20
2023-02-22T09:05:31.620Z,96.87
2023-02-22T09:07:59.197Z,97.29
2023-02-22T09:10:28.833Z,96.80
2023-02-22T09:12:56.366Z,96.87
2023-02-22T09:15:24.489Z,97.05
2023-02-22T09:17:54.032Z,96.79
2023-02-22T09:20:24.478Z,96.65
2023-02-22T09:22:51.432Z,96.79
2023-02-22T09:25:19.861Z,96.72
2023-02-22T09:27:53.744Z,96.44
2023-02-22T09:30:32.052Z,96.38
2023-02-22T09:33:07.920Z,96.44
2023-02-22T09:35:36.715Z,96.67
2023-02-22T09:38:07.987Z,96.33
2023-02-22T09:40:44.684Z,96.13
2023-02-22T09:43:31.197Z,96.02
2023-02-22T09:46:13.041Z,96.07
2023-02-22T09:48:51.694Z,96.15
2023-02-22T09:51:21.185Z,95.91
2023-02-22T09:53:52.311Z,95.79
2023-02-22T09:56:21.108Z,95.64
2023-02-22T09:58:52.285Z,95.37
2023-02-22T10:01:28.427Z,95.28
2023-02-22T10:04:04.108Z,95.13
2023-02-22T10:06:34.739Z,94.60
2023-02-22T10:09:07.975Z,94.43
2023-02-22T10:11:43.064Z,94.59
2023-02-22T10:14:21.883Z,94.27
2023-02-22T10:17:22.748Z,93.78
2023-02-22T10:20:28.964Z,93.61
2023-02-22T10:23:02.194Z,93.40
2023-02-22T10:25:35.074Z,93.01
2023-02-22T10:28:34.627Z,92.91
2023-02-22T10:31:11.509Z,93.08
2023-02-22T10:33:48.955Z,92.47
2023-02-22T10:36:23.526Z,92.07
2023-02-22T10:39:13.121Z,91.91
2023-02-22T10:41:50.533Z,91.67
2023-02-22T10:44:17.148Z,91.33
2023-02-22T10:46:53.430Z,91.29
2023-02-22T10:49:27.576Z,91.04
2023-02-22T10:52:02.383Z,90.58
2023-02-22T10:54:39.498Z,90.22
2023-02-22T10:57:06.611Z,89.83
2023-02-22T10:59:34.837Z,89.64
2023-02-22T11:02:08.779Z,90.22
2023-02-22T11:04:54.233Z,89.59
2023-02-22T11:07:29.449Z,89.03
2023-02-22T11:09:55.922Z,88.93
2023-02-22T11:12:49.592Z,88.76
2023-02-22T11:15:19.044Z,88.37
2023-02-22T11:17:48.767Z,87.27
2023-02-22T11:20:29.399Z,87.16
2023-02-22T11:23:03.221Z,87.39
2023-02-22T11:25:42.622Z,87.27
2023-02-22T11:28:30.789Z,87.76
2023-02-22T11:31:08.926Z,87.50
2023-02-22T11:33:37.759Z,87.78
2023-02-22T11:36:09.348Z,87.82
2023-02-22T11:38:42.283Z,87.71
2023-02-22T11:41:26.082Z,87.46
2023-02-22T11:43:55.457Z,87.70
2023-02-22T11:46:23.569Z,87.70
2023-02-22T11:49:12.726Z,87.54
2023-02-22T11:51:42.215Z,87.72
2023-02-22T11:54:25.932Z,87.43
2023-02-22T11:56:58.624Z,87.62
2023-02-22T11:59:45.903Z,87.65
2023-02-22T12:02:56.741Z,87.69
2023-02-22T12:05:34.210Z,87.42
2023-02-22T12:08:44.808Z,87.24
2023-02-22T12:11:19.053Z,87.13
2023-02-22T12:14:23.203Z,86.64
2023-02-22T12:17:05.907Z,86.78
2023-02-22T12:19:38.119Z,87.01
2023-02-22T12:22:15.824Z,87.10
2023-02-22T12:25:00.717Z,86.88
2023-02-22T12:27:39.289Z,87.25
2023-02-22T12:30:32.863Z,87.24
2023-02-22T12:33:10.890Z,87.53
2023-02-22T12:35:40.307Z,87.48
2023-02-22T12:38:27.705Z,87.67
2023-02-22T12:41:22.668Z,87.46
2023-02-22T12:43:55.991Z,87.61
2023-02-22T12:46:52.935Z,87.45
2023-02-22T12:49:40.570Z,87.37
2023-02-22T12:52:39.301Z,87.35
2023-02-22T12:55:14.293Z,86.78
2023-02-22T12:57:44.503Z,86.85
2023-02-22T13:00:46.998Z,86.50
2023-02-22T13:03:44.029Z,86.36
2023-02-22T13:06:25.949Z,86.03
2023-02-22T13:09:35.200Z,85.98
2023-02-22T13:12:13.338Z,85.64
2023-02-22T13:14:42.538Z,86.44
2023-02-22T13:17:28.804Z,85.58
2023-02-22T13:20:20.908Z,85.55
2023-02-22T13:23:25.690Z,85.86
2023-02-22T13:26:03.621Z,86.01
2023-02-22T13:28:39.035Z,86.07
2023-02-22T13:31:05.504Z,86.14
2023-02-22T13:33:40.742Z,85.91
2023-02-22T13:36:53.736Z,86.08
2023-02-22T13:39:29.930Z,85.66
2023-02-22T13:42:08.706Z,85.85
2023-02-22T13:45:09.835Z,85.66
2023-02-22T13:48:20.518Z,85.81
2023-02-22T13:51:06.725Z,85.00
2023-02-22T13:53:47.080Z,85.13
2023-02-22T13:56:16.039Z,85.51
2023-02-22T13:59:02.548Z,85.50
2023-02-22T14:01:47.602Z,85.58
2023-02-22T14:04:29.392Z,86.24
2023-02-22T14:07:04.137Z,86.22
2023-02-22T14:10:02.228Z,86.56
2023-02-22T14:12:36.446Z,86.56
2023-02-22T14:15:29.291Z,86.79
2023-02-22T14:17:56.736Z,86.74
2023-02-22T14:20:32.373Z,86.52
2023-02-22T14:23:25.131Z,86.60
2023-02-22T14:25:54.180Z,86.81
2023-02-22T14:28:42.510Z,86.68
2023-02-22T14:31:13.894Z,86.68
2023-02-22T14:34:21.725Z,87.01
2023-02-22T14:37:05.263Z,86.83
2023-02-22T14:39:38.274Z,87.34
2023-02-22T14:42:17.697Z,87.35
2023-02-22T14:45:25.893Z,87.48
2023-02-22T14:48:01.262Z,87.02
2023-02-22T14:50:51.400Z,87.03
2023-02-22T14:54:05.474Z,87.07
2023-02-22T14:57:01.521Z,86.40
2023-02-22T14:59:35.333Z,85.80
2023-02-22T15:02:15.521Z,85.73
2023-02-22T15:04:44.827Z,86.00
2023-02-22T15:07:30.350Z,86.00
2023-02-22T15:10:17.823Z,86.22
2023-02-22T15:12:59.043Z,85.99
2023-02-22T15:15:26.123Z,86.04
2023-02-22T15:17:55.537Z,85.99
2023-02-22T15:20:25.150Z,85.99
2023-02-22T15:23:00.018Z,86.48
2023-02-22T15:25:33.043Z,86.45
2023-02-22T15:28:09.346Z,86.35
2023-02-22T15:30:39.217Z,86.04
2023-02-22T15:33:30.878Z,86.25
2023-02-22T15:35:57.743Z,86.42
2023-02-22T15:38:33.428Z,86.55
2023-02-22T15:41:08.483Z,86.91
2023-02-22T15:43:38.505Z,87.13
2023-02-22T15:46:06.912Z,86.99
2023-02-22T15:48:40.309Z,87.04
2023-02-22T15:51:13.993Z,87.03
2023-02-22T15:53:47.815Z,87.06
2023-02-22T15:56:25.816Z,87.33
2023-02-22T15:59:00.050Z,87.28
2023-02-22T16:01:27.244Z,87.64
2023-02-22T16:04:01.556Z,87.84
2023-02-22T16:06:35.186Z,88.03
2023-02-22T16:09:12.590Z,88.19
2023-02-22T16:11:47.516Z,88.05
2023-02-22T16:14:37.577Z,88.22
2023-02-22T16:17:11.229Z,88.30
2023-02-22T16:19:44.056Z,88.21
2023-02-22T16:22:29.424Z,88.36
2023-02-22T16:25:16.452Z,88.72
2023-02-22T16:27:48.366Z,88.77
2023-02-22T16:30:23.986Z,88.71
2023-02-22T16:32:53.347Z,88.98
2023-02-22T16:35:19.813Z,88.93
2023-02-22T16:37:53.014Z,89.08
2023-02-22T16:40:24.962Z,89.08
2023-02-22T16:42:55.050Z,89.31
2023-02-22T16:45:25.795Z,89.47
2023-02-22T16:47:55.974Z,89.62
2023-02-22T16:50:24.787Z,89.73
2023-02-22T16:52:56.056Z,89.72
2023-02-22T16:55:22.965Z,89.88
2023-02-22T16:57:50.577Z,89.97
2023-02-22T17:00:31.116Z,90.12
2023-02-22T17:02:58.979Z,90.13
2023-02-22T17:05:25.780Z,90.07
2023-02-22T17:07:54.673Z,90.28
2023-02-22T17:10:23.714Z,89.95
2023-02-22T17:12:53.846Z,90.37
2023-02-22T17:15:26.467Z,90.18
2023-02-22T17:17:56.810Z,90.24
2023-02-22T17:20:32.731Z,90.36
2023-02-22T17:23:08.023Z,90.24
2023-02-22T17:25:38.004Z,90.24
2023-02-22T17:28:05.708Z,90.33
2023-02-22T17:30:32.973Z,90.23
2023-02-22T17:33:03.959Z,90.61
2023-02-22T17:35:35.065Z,90.45
2023-02-22T17:38:06.376Z,90.21
2023-02-22T17:40:35.741Z,90.29
2023-02-22T17:43:08.771Z,90.41
2023-02-22T17:45:38.808Z,90.19
2023-02-22T17:48:05.517Z,90.23
2023-02-22T17:50:41.570Z,90.39
2023-02-22T17:53:11.196Z,90.41
2023-02-22T17:55:44.534Z,90.37
2023-02-22T17:58:17.465Z,90.62
2023-02-22T18:00:50.361Z,90.32
2023-02-22T18:03:27.172Z,90.39
2023-02-22T18:05:57.618Z,90.40
2023-02-22T18:08:31.060Z,90.51
2023-02-22T18:10:58.147Z,90.53
2023-02-22T18:13:31.124Z,90.47
2023-02-22T18:16:00.930Z,90.53
2023-02-22T18:18:28.340Z,90.62
2023-02-22T18:21:01.194Z,90.39
2023-02-22T18:23:32.824Z,90.54
2023-02-22T18:26:10.649Z,90.45
2023-02-22T18:28:40.155Z,90.39
2023-02-22T18:31:15.287Z,90.42
2023-02-22T18:33:46.236Z,90.57
2023-02-22T18:36:14.321Z,90.48
2023-02-22T18:38:43.147Z,90.58
2023-02-22T18:41:17.555Z,90.72
2023-02-22T18:43:46.363Z,90.68
2023-02-22T18:46:18.826Z,90.90
2023-02-22T18:48:51.128Z,90.93
2023-02-22T18:51:20.002Z,90.78
2023-02-22T18:53:50.103Z,90.82
2023-02-22T18:56:22.324Z,90.92
2023-02-22T18:58:56.702Z,91.12
2023-02-22T19:01:23.478Z,91.25
2023-02-22T19:03:52.642Z,91.20
2023-02-22T19:06:22.426Z,91.22
2023-02-22T19:08:50.665Z,91.32
2023-02-22T19:11:26.254Z,91.65
2023-02-22T19:13:56.421Z,91.45
2023-02-22T19:16:26.643Z,91.53
2023-02-22T19:18:57.711Z,91.57
2023-02-22T19:21:28.106Z,91.82
2023-02-22T19:23:54.668Z,91.81
2023-02-22T19:26:25.398Z,91.99
2023-02-22T19:28:54.584Z,92.05
2023-02-22T19:31:33.642Z,92.01
2023-02-22T19:34:11.096Z,91.86
2023-02-22T19:36:39.562Z,91.91
2023-02-22T19:39:08.158Z,92.08
2023-02-22T19:41:34.744Z,92.35
2023-02-22T19:44:06.052Z,92.42
2023-02-22T19:46:35.237Z,92.54
2023-02-22T19:49:05.266Z,92.41
2023-02-22T19:51:36.215Z,92.51
2023-02-22T19:54:08.576Z,92.44
2023-02-22T19:56:35.688Z,92.50
2023-02-22T19:59:09.509Z,92.56
2023-02-22T20:01:44.098Z,92.75
2023-02-22T20:04:13.214Z,92.63
2023-02-22T20:06:41.952Z,92.87
2023-02-22T20:09:13.355Z,92.96
2023-02-22T20:11:42.360Z,92.88
2023-02-22T20:14:08.933Z,92.79
2023-02-22T20:16:36.666Z,93.05
2023-02-22T20:19:06.555Z,92.94
2023-02-22T20:21:34.718Z,93.11
2023-02-22T20:24:03.879Z,92.93
2023-02-22T20:26:32.270Z,92.95
2023-02-22T20:28:59.548Z,93.02
2023-02-22T20:31:26.612Z,93.22
2023-02-22T20:33:56.051Z,93.08
2023-02-22T20:36:22.784Z,93.21
2023-02-22T20:38:53.963Z,93.17
2023-02-22T20:41:23.976Z,93.22
2023-02-22T20:43:51.995Z,93.28
2023-02-22T20:46:18.752Z,93.29
2023-02-22T20:48:53.352Z,93.32
2023-02-22T20:51:25.349Z,93.12
2023-02-22T20:53:52.024Z,93.43
2023-02-22T20:56:24.134Z,93.38
2023-02-22T20:58:53.597Z,93.31
2023-02-22T21:01:22.731Z,93.33
2023-02-22T21:03:49.747Z,93.29
2023-02-22T21:06:18.850Z,93.15
2023-02-22T21:08:54.851Z,93.34
2023-02-22T21:11:23.437Z,93.41
2023-02-22T21:13:53.035Z,93.29
2023-02-22T21:16:25.951Z,93.60
2023-02-22T21:18:56.515Z,93.65
2023-02-22T21:21:27.588Z,93.82
2023-02-22T21:23:56.421Z,93.74
2023-02-22T21:26:29.622Z,93.65
2023-02-22T21:29:02.156Z,93.88
2023-02-22T21:31:31.584Z,93.82
2023-02-22T21:34:00.389Z,93.72
2023-02-22T21:36:31.940Z,93.89
2023-02-22T21:39:09.993Z,93.89
2023-02-22T21:41:39.190Z,93.66
2023-02-22T21:44:07.373Z,93.87
2023-02-22T21:46:36.189Z,93.87
2023-02-22T21:49:02.696Z,94.02
2023-02-22T21:51:31.665Z,94.03
2023-02-22T21:54:01.015Z,94.19
2023-02-22T21:56:29.156Z,94.02
2023-02-22T21:58:59.556Z,93.92
2023-02-22T22:01:38.596Z,94.21
2023-02-22T22:04:06.814Z,94.01
2023-02-22T22:06:34.572Z,94.25
2023-02-22T22:09:04.565Z,94.23
2023-02-22T22:11:33.663Z,93.82
2023-02-22T22:14:03.570Z,93.96
2023-02-22T22:16:33.072Z,94.13
2023-02-22T22:18:59.529Z,94.61
2023-02-22T22:21:26.142Z,94.45
2023-02-22T22:23:57.340Z,94.40
2023-02-22T22:26:27.322Z,94.39
2023-02-22T22:28:59.807Z,94.55
2023-02-22T22:31:27.681Z,94.45
2023-02-22T22:33:58.499Z,94.43
2023-02-22T22:36:34.607Z,94.57
2023-02-22T22:39:01.324Z,94.59
2023-02-22T22:41:34.670Z,94.59
2023-02-22T22:44:03.392Z,94.36
2023-02-22T22:46:29.897Z,94.31
2023-02-22T22:48:56.333Z,94.60
2023-02-22T22:51:24.038Z,94.46
2023-02-22T22:53:51.660Z,94.61
2023-02-22T22:56:26.812Z,94.86
2023-02-22T22:59:00.996Z,94.86
2023-02-22T23:01:34.376Z,95.04
2023-02-22T23:04:05.381Z,95.20
2023-02-22T23:06:54.132Z,95.01
2023-02-22T23:09:31.619Z,95.00
2023-02-22T23:12:09.740Z,95.17
2023-02-22T23:14:44.104Z,95.17
2023-02-22T23:17:15.637Z,95.24
2023-02-22T23:19:45.153Z,95.15
2023-02-22T23:22:18.450Z,95.27
2023-02-22T23:24:52.705Z,95.40
2023-02-22T23:27:23.661Z,95.09
2023-02-22T23:29:50.393Z,95.25
2023-02-22T23:32:19.466Z,95.51
2023-02-22T23:34:49.621Z,95.39
2023-02-22T23:37:20.713Z,95.44
2023-02-22T23:39:51.029Z,95.53
2023-02-22T23:42:22.988Z,95.53
2023-02-22T23:44:52.923Z,95.49
2023-02-22T23:47:19.410Z,95.51
2023-02-22T23:49:49.821Z,95.56
2023-02-22T23:52:23.883Z,95.57
2023-02-22T23:54:55.368Z,95.54
2023-02-22T23:57:22.033Z,95.72
2023-02-22T23:59:51.703Z,95.76
